sensor_id;sensor_type;location;lat;lon;timestamp;temperature;humidity
17619;DHT22;8928;51.678;6.074;2023-01-05T00:00:43;10.60;99.90
17619;DHT22;8928;51.678;6.074;2023-01-05T00:03:30;10.60;99.90
17619;DHT22;8928;51.678;6.074;2023-01-05T00:06:17;10.50;99.90
17619;DHT22;8928;51.678;6.074;2023-01-05T00:09:04;10.50;99.90
17619;DHT22;8928;51.678;6.074;2023-01-05T00:11:51;10.50;99.90
17619;DHT22;8928;51.678;6.074;2023-01-05T00:14:57;10.50;99.90
17619;DHT22;8928;51.678;6.074;2023-01-05T00:18:01;10.50;99.90
17619;DHT22;8928;51.678;6.074;2023-01-05T00:21:11;10.50;99.90
17619;DHT22;8928;51.678;6.074;2023-01-05T00:24:16;10.50;99.90
17619;DHT22;8928;51.678;6.074;2023-01-05T00:27:03;10.40;99.90
17619;DHT22;8928;51.678;6.074;2023-01-05T00:29:50;10.40;99.90
17619;DHT22;8928;51.678;6.074;2023-01-05T00:32:40;10.30;99.90
17619;DHT22;8928;51.678;6.074;2023-01-05T00:35:28;10.50;99.90
17619;DHT22;8928;51.678;6.074;2023-01-05T00:38:15;10.50;99.90
17619;DHT22;8928;51.678;6.074;2023-01-05T00:41:02;10.40;99.90
17619;DHT22;8928;51.678;6.074;2023-01-05T00:43:49;10.40;99.90
17619;DHT22;8928;51.678;6.074;2023-01-05T00:46:36;10.40;99.90
17619;DHT22;8928;51.678;6.074;2023-01-05T00:49:24;10.30;99.90
17619;DHT22;8928;51.678;6.074;2023-01-05T00:52:11;10.30;99.90
17619;DHT22;8928;51.678;6.074;2023-01-05T00:54:58;10.40;99.90
17619;DHT22;8928;51.678;6.074;2023-01-05T00:57:45;10.40;99.90
17619;DHT22;8928;51.678;6.074;2023-01-05T01:00:32;10.30;99.90
17619;DHT22;8928;51.678;6.074;2023-01-05T01:03:19;10.40;99.90
17619;DHT22;8928;51.678;6.074;2023-01-05T01:06:07;10.30;99.90
17619;DHT22;8928;51.678;6.074;2023-01-05T01:08:55;10.30;99.90
17619;DHT22;8928;51.678;6.074;2023-01-05T01:11:42;10.30;99.90
17619;DHT22;8928;51.678;6.074;2023-01-05T01:14:29;10.20;99.90
17619;DHT22;8928;51.678;6.074;2023-01-05T01:17:16;10.20;99.90
17619;DHT22;8928;51.678;6.074;2023-01-05T01:20:04;10.20;99.90
17619;DHT22;8928;51.678;6.074;2023-01-05T01:22:53;10.30;99.90
17619;DHT22;8928;51.678;6.074;2023-01-05T01:25:41;10.30;99.90
17619;DHT22;8928;51.678;6.074;2023-01-05T01:28:28;10.30;99.90
17619;DHT22;8928;51.678;6.074;2023-01-05T01:31:15;10.30;99.90
17619;DHT22;8928;51.678;6.074;2023-01-05T01:34:02;10.20;99.90
17619;DHT22;8928;51.678;6.074;2023-01-05T01:36:49;10.10;99.90
17619;DHT22;8928;51.678;6.074;2023-01-05T01:39:38;10.10;99.90
17619;DHT22;8928;51.678;6.074;2023-01-05T01:42:25;10.10;99.90
17619;DHT22;8928;51.678;6.074;2023-01-05T01:45:17;10.20;99.90
17619;DHT22;8928;51.678;6.074;2023-01-05T01:48:05;10.10;99.90
17619;DHT22;8928;51.678;6.074;2023-01-05T01:50:53;10.10;99.90
17619;DHT22;8928;51.678;6.074;2023-01-05T01:53:43;10.10;99.90
17619;DHT22;8928;51.678;6.074;2023-01-05T01:56:36;10.10;99.90
17619;DHT22;8928;51.678;6.074;2023-01-05T01:59:25;10.10;99.90
17619;DHT22;8928;51.678;6.074;2023-01-05T02:02:13;10.10;99.90
17619;DHT22;8928;51.678;6.074;2023-01-05T02:05:03;10.10;99.90
17619;DHT22;8928;51.678;6.074;2023-01-05T02:07:51;10.20;99.90
17619;DHT22;8928;51.678;6.074;2023-01-05T02:10:52;10.20;99.90
17619;DHT22;8928;51.678;6.074;2023-01-05T02:13:54;10.20;99.90
17619;DHT22;8928;51.678;6.074;2023-01-05T02:16:51;10.20;99.90
17619;DHT22;8928;51.678;6.074;2023-01-05T02:20:23;10.20;99.90
17619;DHT22;8928;51.678;6.074;2023-01-05T02:23:45;10.20;99.90
17619;DHT22;8928;51.678;6.074;2023-01-05T02:33:26;10.10;99.90
17619;DHT22;8928;51.678;6.074;2023-01-05T02:36:18;10.10;99.90
17619;DHT22;8928;51.678;6.074;2023-01-05T02:39:13;10.10;99.90
17619;DHT22;8928;51.678;6.074;2023-01-05T02:42:03;10.10;99.90
17619;DHT22;8928;51.678;6.074;2023-01-05T02:44:51;10.10;99.90
17619;DHT22;8928;51.678;6.074;2023-01-05T02:47:40;10.20;99.90
17619;DHT22;8928;51.678;6.074;2023-01-05T02:50:32;10.20;99.90
17619;DHT22;8928;51.678;6.074;2023-01-05T02:53:23;10.20;99.90
17619;DHT22;8928;51.678;6.074;2023-01-05T02:56:14;10.10;99.90
17619;DHT22;8928;51.678;6.074;2023-01-05T02:59:10;10.10;99.90
17619;DHT22;8928;51.678;6.074;2023-01-05T03:02:01;10.20;99.90
17619;DHT22;8928;51.678;6.074;2023-01-05T03:04:52;10.10;99.90
17619;DHT22;8928;51.678;6.074;2023-01-05T03:07:43;10.10;99.90
17619;DHT22;8928;51.678;6.074;2023-01-05T03:10:32;10.10;99.90
17619;DHT22;8928;51.678;6.074;2023-01-05T03:13:39;10.10;99.90
17619;DHT22;8928;51.678;6.074;2023-01-05T03:16:30;10.10;99.90
17619;DHT22;8928;51.678;6.074;2023-01-05T03:19:20;10.20;99.90
17619;DHT22;8928;51.678;6.074;2023-01-05T03:22:26;10.20;99.90
17619;DHT22;8928;51.678;6.074;2023-01-05T03:25:33;10.20;99.90
17619;DHT22;8928;51.678;6.074;2023-01-05T03:28:42;10.20;99.90
17619;DHT22;8928;51.678;6.074;2023-01-05T03:31:51;10.20;99.90
17619;DHT22;8928;51.678;6.074;2023-01-05T03:35:01;10.20;99.90
17619;DHT22;8928;51.678;6.074;2023-01-05T03:38:10;10.30;99.90
17619;DHT22;8928;51.678;6.074;2023-01-05T03:41:02;10.30;99.90
17619;DHT22;8928;51.678;6.074;2023-01-05T03:43:50;10.40;99.90
17619;DHT22;8928;51.678;6.074;2023-01-05T03:46:38;10.40;99.90
17619;DHT22;8928;51.678;6.074;2023-01-05T03:49:25;10.40;99.90
17619;DHT22;8928;51.678;6.074;2023-01-05T03:52:12;10.40;99.90
17619;DHT22;8928;51.678;6.074;2023-01-05T03:54:59;10.40;99.90
17619;DHT22;8928;51.678;6.074;2023-01-05T03:57:47;10.50;99.90
17619;DHT22;8928;51.678;6.074;2023-01-05T04:00:35;10.50;99.90
17619;DHT22;8928;51.678;6.074;2023-01-05T04:03:22;10.50;99.90
17619;DHT22;8928;51.678;6.074;2023-01-05T04:06:09;10.40;99.90
17619;DHT22;8928;51.678;6.074;2023-01-05T04:08:56;10.50;99.90
17619;DHT22;8928;51.678;6.074;2023-01-05T04:11:43;10.50;99.90
17619;DHT22;8928;51.678;6.074;2023-01-05T04:14:31;10.50;99.90
17619;DHT22;8928;51.678;6.074;2023-01-05T04:17:18;10.60;99.90
17619;DHT22;8928;51.678;6.074;2023-01-05T04:20:06;10.60;99.90
17619;DHT22;8928;51.678;6.074;2023-01-05T04:22:53;10.60;99.90
17619;DHT22;8928;51.678;6.074;2023-01-05T04:25:40;10.60;99.90
17619;DHT22;8928;51.678;6.074;2023-01-05T04:28:27;10.60;99.90
17619;DHT22;8928;51.678;6.074;2023-01-05T04:31:15;10.60;99.90
17619;DHT22;8928;51.678;6.074;2023-01-05T04:34:02;10.70;99.90
17619;DHT22;8928;51.678;6.074;2023-01-05T04:36:49;10.70;99.90
17619;DHT22;8928;51.678;6.074;2023-01-05T04:39:36;10.70;99.90
17619;DHT22;8928;51.678;6.074;2023-01-05T04:42:23;10.60;99.90
17619;DHT22;8928;51.678;6.074;2023-01-05T04:45:10;10.60;99.90
17619;DHT22;8928;51.678;6.074;2023-01-05T04:47:59;10.60;99.90
17619;DHT22;8928;51.678;6.074;2023-01-05T04:50:51;10.50;99.90
17619;DHT22;8928;51.678;6.074;2023-01-05T04:53:39;10.40;99.90
17619;DHT22;8928;51.678;6.074;2023-01-05T04:56:26;10.40;99.90
17619;DHT22;8928;51.678;6.074;2023-01-05T04:59:13;10.30;99.90
17619;DHT22;8928;51.678;6.074;2023-01-05T05:02:00;10.20;99.90
17619;DHT22;8928;51.678;6.074;2023-01-05T05:04:48;10.20;99.90
17619;DHT22;8928;51.678;6.074;2023-01-05T05:07:35;10.30;99.90
17619;DHT22;8928;51.678;6.074;2023-01-05T05:10:22;10.40;99.90
17619;DHT22;8928;51.678;6.074;2023-01-05T05:13:09;10.40;99.90
17619;DHT22;8928;51.678;6.074;2023-01-05T05:15:56;10.40;99.90
17619;DHT22;8928;51.678;6.074;2023-01-05T05:18:43;10.40;99.90
17619;DHT22;8928;51.678;6.074;2023-01-05T05:21:32;10.40;99.90
17619;DHT22;8928;51.678;6.074;2023-01-05T05:24:19;10.40;99.90
17619;DHT22;8928;51.678;6.074;2023-01-05T05:27:06;10.50;99.90
17619;DHT22;8928;51.678;6.074;2023-01-05T05:29:53;10.50;99.90
17619;DHT22;8928;51.678;6.074;2023-01-05T05:32:40;10.50;99.90
17619;DHT22;8928;51.678;6.074;2023-01-05T05:35:27;10.50;99.90
17619;DHT22;8928;51.678;6.074;2023-01-05T05:38:15;10.50;99.90
17619;DHT22;8928;51.678;6.074;2023-01-05T05:41:02;10.50;99.90
17619;DHT22;8928;51.678;6.074;2023-01-05T05:43:49;10.60;99.90
17619;DHT22;8928;51.678;6.074;2023-01-05T05:46:36;10.60;99.90
17619;DHT22;8928;51.678;6.074;2023-01-05T05:49:23;10.60;99.90
17619;DHT22;8928;51.678;6.074;2023-01-05T05:52:10;10.60;99.90
17619;DHT22;8928;51.678;6.074;2023-01-05T05:54:58;10.60;99.90
17619;DHT22;8928;51.678;6.074;2023-01-05T05:57:45;10.60;99.90
17619;DHT22;8928;51.678;6.074;2023-01-05T06:00:33;10.60;99.90
17619;DHT22;8928;51.678;6.074;2023-01-05T06:03:20;10.60;99.90
17619;DHT22;8928;51.678;6.074;2023-01-05T06:06:07;10.60;99.90
17619;DHT22;8928;51.678;6.074;2023-01-05T06:08:54;10.60;99.90
17619;DHT22;8928;51.678;6.074;2023-01-05T06:11:43;10.60;99.90
17619;DHT22;8928;51.678;6.074;2023-01-05T06:14:30;10.60;99.90
17619;DHT22;8928;51.678;6.074;2023-01-05T06:17:17;10.70;99.90
17619;DHT22;8928;51.678;6.074;2023-01-05T06:20:05;10.60;99.90
17619;DHT22;8928;51.678;6.074;2023-01-05T06:22:53;10.60;99.90
17619;DHT22;8928;51.678;6.074;2023-01-05T06:25:40;10.70;99.90
17619;DHT22;8928;51.678;6.074;2023-01-05T06:28:28;10.60;99.90
17619;DHT22;8928;51.678;6.074;2023-01-05T06:31:15;10.60;99.90
17619;DHT22;8928;51.678;6.074;2023-01-05T06:34:02;10.60;99.90
17619;DHT22;8928;51.678;6.074;2023-01-05T06:36:49;10.50;99.90
17619;DHT22;8928;51.678;6.074;2023-01-05T06:39:36;10.50;99.90
17619;DHT22;8928;51.678;6.074;2023-01-05T06:42:24;10.40;99.90
17619;DHT22;8928;51.678;6.074;2023-01-05T06:45:14;10.40;99.90
17619;DHT22;8928;51.678;6.074;2023-01-05T06:48:01;10.30;99.90
17619;DHT22;8928;51.678;6.074;2023-01-05T06:50:48;10.30;99.90
17619;DHT22;8928;51.678;6.074;2023-01-05T06:53:35;10.20;99.90
17619;DHT22;8928;51.678;6.074;2023-01-05T06:56:22;10.20;99.90
17619;DHT22;8928;51.678;6.074;2023-01-05T06:59:10;10.20;99.90
17619;DHT22;8928;51.678;6.074;2023-01-05T07:01:59;10.20;99.90
17619;DHT22;8928;51.678;6.074;2023-01-05T07:04:46;10.30;99.90
17619;DHT22;8928;51.678;6.074;2023-01-05T07:07:33;10.30;99.90
17619;DHT22;8928;51.678;6.074;2023-01-05T07:10:21;10.30;99.90
17619;DHT22;8928;51.678;6.074;2023-01-05T07:13:08;10.30;99.90
17619;DHT22;8928;51.678;6.074;2023-01-05T07:15:55;10.40;99.90
17619;DHT22;8928;51.678;6.074;2023-01-05T07:18:43;10.40;99.90
17619;DHT22;8928;51.678;6.074;2023-01-05T07:21:30;10.40;99.90
17619;DHT22;8928;51.678;6.074;2023-01-05T07:24:17;10.40;99.90
17619;DHT22;8928;51.678;6.074;2023-01-05T07:27:04;10.40;99.90
17619;DHT22;8928;51.678;6.074;2023-01-05T07:29:52;10.40;99.90
17619;DHT22;8928;51.678;6.074;2023-01-05T07:32:39;10.40;99.90
17619;DHT22;8928;51.678;6.074;2023-01-05T07:35:28;10.40;99.90
17619;DHT22;8928;51.678;6.074;2023-01-05T07:38:15;10.40;99.90
17619;DHT22;8928;51.678;6.074;2023-01-05T07:41:02;10.40;99.90
17619;DHT22;8928;51.678;6.074;2023-01-05T07:43:49;10.40;99.90
17619;DHT22;8928;51.678;6.074;2023-01-05T07:46:36;10.40;99.90
17619;DHT22;8928;51.678;6.074;2023-01-05T07:49:23;10.40;99.90
17619;DHT22;8928;51.678;6.074;2023-01-05T07:52:12;10.40;99.90
17619;DHT22;8928;51.678;6.074;2023-01-05T07:54:59;10.40;99.90
17619;DHT22;8928;51.678;6.074;2023-01-05T07:57:46;10.40;99.90
17619;DHT22;8928;51.678;6.074;2023-01-05T08:00:33;10.50;99.90
17619;DHT22;8928;51.678;6.074;2023-01-05T08:03:21;10.50;99.90
17619;DHT22;8928;51.678;6.074;2023-01-05T08:06:09;10.50;99.90
17619;DHT22;8928;51.678;6.074;2023-01-05T08:08:58;10.50;99.90
17619;DHT22;8928;51.678;6.074;2023-01-05T08:12:05;10.50;99.90
17619;DHT22;8928;51.678;6.074;2023-01-05T08:14:52;10.50;99.90
17619;DHT22;8928;51.678;6.074;2023-01-05T08:17:39;10.50;99.90
17619;DHT22;8928;51.678;6.074;2023-01-05T08:20:26;10.60;99.90
17619;DHT22;8928;51.678;6.074;2023-01-05T08:23:13;10.60;99.90
17619;DHT22;8928;51.678;6.074;2023-01-05T08:26:04;10.60;99.90
17619;DHT22;8928;51.678;6.074;2023-01-05T08:28:52;10.60;99.90
17619;DHT22;8928;51.678;6.074;2023-01-05T08:31:39;10.60;99.90
17619;DHT22;8928;51.678;6.074;2023-01-05T08:34:26;10.60;99.90
17619;DHT22;8928;51.678;6.074;2023-01-05T08:37:13;10.60;99.90
17619;DHT22;8928;51.678;6.074;2023-01-05T08:40:00;10.60;99.90
17619;DHT22;8928;51.678;6.074;2023-01-05T08:42:49;10.70;99.90
17619;DHT22;8928;51.678;6.074;2023-01-05T08:45:36;10.70;99.90
17619;DHT22;8928;51.678;6.074;2023-01-05T08:48:23;10.70;99.90
17619;DHT22;8928;51.678;6.074;2023-01-05T08:51:10;10.70;99.90
17619;DHT22;8928;51.678;6.074;2023-01-05T08:53:57;10.70;99.90
17619;DHT22;8928;51.678;6.074;2023-01-05T08:56:44;10.70;99.90
17619;DHT22;8928;51.678;6.074;2023-01-05T08:59:34;10.70;99.90
17619;DHT22;8928;51.678;6.074;2023-01-05T09:02:21;10.70;99.90
17619;DHT22;8928;51.678;6.074;2023-01-05T09:05:08;10.80;99.90
17619;DHT22;8928;51.678;6.074;2023-01-05T09:07:55;10.80;99.90
17619;DHT22;8928;51.678;6.074;2023-01-05T09:10:42;10.80;99.90
17619;DHT22;8928;51.678;6.074;2023-01-05T09:13:29;10.80;99.90
17619;DHT22;8928;51.678;6.074;2023-01-05T09:16:20;10.80;99.90
17619;DHT22;8928;51.678;6.074;2023-01-05T09:19:08;10.90;99.90
17619;DHT22;8928;51.678;6.074;2023-01-05T09:21:55;10.90;99.90
17619;DHT22;8928;51.678;6.074;2023-01-05T09:24:42;10.90;99.90
17619;DHT22;8928;51.678;6.074;2023-01-05T09:27:29;10.90;99.90
17619;DHT22;8928;51.678;6.074;2023-01-05T09:30:16;11.00;99.90
17619;DHT22;8928;51.678;6.074;2023-01-05T09:33:04;11.00;99.90
17619;DHT22;8928;51.678;6.074;2023-01-05T09:35:55;11.00;99.90
17619;DHT22;8928;51.678;6.074;2023-01-05T09:38:42;11.00;99.90
17619;DHT22;8928;51.678;6.074;2023-01-05T09:41:36;11.00;99.90
17619;DHT22;8928;51.678;6.074;2023-01-05T09:44:27;11.00;99.90
17619;DHT22;8928;51.678;6.074;2023-01-05T09:47:19;11.00;99.90
17619;DHT22;8928;51.678;6.074;2023-01-05T09:50:17;11.00;99.90
17619;DHT22;8928;51.678;6.074;2023-01-05T09:53:05;11.00;99.90
17619;DHT22;8928;51.678;6.074;2023-01-05T09:55:53;11.00;99.90
17619;DHT22;8928;51.678;6.074;2023-01-05T09:58:41;11.00;99.90
17619;DHT22;8928;51.678;6.074;2023-01-05T10:01:30;11.00;99.90
17619;DHT22;8928;51.678;6.074;2023-01-05T10:04:21;11.00;99.90
17619;DHT22;8928;51.678;6.074;2023-01-05T10:07:17;11.00;99.90
17619;DHT22;8928;51.678;6.074;2023-01-05T10:10:11;11.00;99.90
17619;DHT22;8928;51.678;6.074;2023-01-05T10:13:02;11.10;99.90
17619;DHT22;8928;51.678;6.074;2023-01-05T10:15:50;11.10;99.90
17619;DHT22;8928;51.678;6.074;2023-01-05T10:18:38;11.20;99.90
17619;DHT22;8928;51.678;6.074;2023-01-05T10:21:30;11.20;99.90
17619;DHT22;8928;51.678;6.074;2023-01-05T10:24:28;11.20;99.90
17619;DHT22;8928;51.678;6.074;2023-01-05T10:27:24;11.20;99.90
17619;DHT22;8928;51.678;6.074;2023-01-05T10:30:18;11.20;99.90
17619;DHT22;8928;51.678;6.074;2023-01-05T10:33:13;11.30;99.90
17619;DHT22;8928;51.678;6.074;2023-01-05T10:36:06;11.30;99.90
17619;DHT22;8928;51.678;6.074;2023-01-05T10:39:03;11.20;99.90
17619;DHT22;8928;51.678;6.074;2023-01-05T10:42:02;11.20;99.90
17619;DHT22;8928;51.678;6.074;2023-01-05T10:44:54;11.20;99.90
17619;DHT22;8928;51.678;6.074;2023-01-05T10:47:42;11.20;99.90
17619;DHT22;8928;51.678;6.074;2023-01-05T10:50:34;11.30;99.90
17619;DHT22;8928;51.678;6.074;2023-01-05T10:53:23;11.30;99.90
17619;DHT22;8928;51.678;6.074;2023-01-05T10:56:13;11.40;99.90
17619;DHT22;8928;51.678;6.074;2023-01-05T10:59:09;11.50;99.90
17619;DHT22;8928;51.678;6.074;2023-01-05T11:01:57;11.50;99.90
17619;DHT22;8928;51.678;6.074;2023-01-05T11:04:46;11.80;99.90
17619;DHT22;8928;51.678;6.074;2023-01-05T11:07:45;12.10;99.90
17619;DHT22;8928;51.678;6.074;2023-01-05T11:10:35;12.00;99.90
17619;DHT22;8928;51.678;6.074;2023-01-05T11:13:29;11.90;99.90
17619;DHT22;8928;51.678;6.074;2023-01-05T11:16:19;12.00;99.90
17619;DHT22;8928;51.678;6.074;2023-01-05T11:19:12;12.00;99.90
17619;DHT22;8928;51.678;6.074;2023-01-05T11:22:01;12.00;99.90
17619;DHT22;8928;51.678;6.074;2023-01-05T11:24:48;11.80;99.90
17619;DHT22;8928;51.678;6.074;2023-01-05T11:27:35;11.90;99.90
17619;DHT22;8928;51.678;6.074;2023-01-05T11:30:23;12.00;99.90
17619;DHT22;8928;51.678;6.074;2023-01-05T11:33:21;12.00;99.90
17619;DHT22;8928;51.678;6.074;2023-01-05T11:36:13;12.10;99.90
17619;DHT22;8928;51.678;6.074;2023-01-05T11:39:00;12.20;99.90
17619;DHT22;8928;51.678;6.074;2023-01-05T11:41:49;12.40;99.90
17619;DHT22;8928;51.678;6.074;2023-01-05T11:44:36;12.50;99.90
17619;DHT22;8928;51.678;6.074;2023-01-05T11:47:28;12.60;99.90
17619;DHT22;8928;51.678;6.074;2023-01-05T11:50:19;12.50;99.90
17619;DHT22;8928;51.678;6.074;2023-01-05T11:53:23;12.40;99.90
17619;DHT22;8928;51.678;6.074;2023-01-05T11:56:20;12.30;99.90
17619;DHT22;8928;51.678;6.074;2023-01-05T11:59:27;12.20;99.90
17619;DHT22;8928;51.678;6.074;2023-01-05T12:02:46;12.10;99.90
17619;DHT22;8928;51.678;6.074;2023-01-05T12:05:42;12.10;99.90
17619;DHT22;8928;51.678;6.074;2023-01-05T12:08:35;12.00;99.90
17619;DHT22;8928;51.678;6.074;2023-01-05T12:11:28;11.90;99.90
17619;DHT22;8928;51.678;6.074;2023-01-05T12:14:30;11.80;99.90
17619;DHT22;8928;51.678;6.074;2023-01-05T12:17:27;11.80;99.90
17619;DHT22;8928;51.678;6.074;2023-01-05T12:23:48;11.80;99.90
17619;DHT22;8928;51.678;6.074;2023-01-05T12:26:43;11.80;99.90
17619;DHT22;8928;51.678;6.074;2023-01-05T12:29:50;11.70;99.90
17619;DHT22;8928;51.678;6.074;2023-01-05T12:32:53;11.50;99.90
17619;DHT22;8928;51.678;6.074;2023-01-05T12:35:58;11.50;99.90
17619;DHT22;8928;51.678;6.074;2023-01-05T12:38:58;11.50;99.90
17619;DHT22;8928;51.678;6.074;2023-01-05T12:41:58;11.60;99.90
17619;DHT22;8928;51.678;6.074;2023-01-05T12:48:03;12.10;99.90
17619;DHT22;8928;51.678;6.074;2023-01-05T12:50:55;12.20;99.90
17619;DHT22;8928;51.678;6.074;2023-01-05T12:53:50;12.10;99.90
17619;DHT22;8928;51.678;6.074;2023-01-05T12:56:44;12.10;99.90
17619;DHT22;8928;51.678;6.074;2023-01-05T12:59:37;11.90;99.90
17619;DHT22;8928;51.678;6.074;2023-01-05T13:02:30;11.80;99.90
17619;DHT22;8928;51.678;6.074;2023-01-05T13:05:21;11.80;99.90
17619;DHT22;8928;51.678;6.074;2023-01-05T13:08:14;12.00;99.90
17619;DHT22;8928;51.678;6.074;2023-01-05T13:11:08;11.90;99.90
17619;DHT22;8928;51.678;6.074;2023-01-05T13:14:02;11.90;99.90
17619;DHT22;8928;51.678;6.074;2023-01-05T13:16:54;11.90;99.90
17619;DHT22;8928;51.678;6.074;2023-01-05T13:19:45;12.10;99.90
17619;DHT22;8928;51.678;6.074;2023-01-05T13:22:35;12.10;99.90
17619;DHT22;8928;51.678;6.074;2023-01-05T13:25:28;12.00;99.90
17619;DHT22;8928;51.678;6.074;2023-01-05T13:28:19;11.70;99.90
17619;DHT22;8928;51.678;6.074;2023-01-05T13:31:24;11.50;99.90
17619;DHT22;8928;51.678;6.074;2023-01-05T13:34:37;11.40;99.90
17619;DHT22;8928;51.678;6.074;2023-01-05T13:37:55;11.40;99.90
17619;DHT22;8928;51.678;6.074;2023-01-05T13:41:07;11.40;99.90
17619;DHT22;8928;51.678;6.074;2023-01-05T13:44:32;11.40;99.90
17619;DHT22;8928;51.678;6.074;2023-01-05T13:47:43;11.40;99.90
17619;DHT22;8928;51.678;6.074;2023-01-05T13:50:45;11.50;99.90
17619;DHT22;8928;51.678;6.074;2023-01-05T13:53:39;11.50;99.90
17619;DHT22;8928;51.678;6.074;2023-01-05T13:56:28;11.60;99.90
17619;DHT22;8928;51.678;6.074;2023-01-05T13:59:25;11.60;99.90
17619;DHT22;8928;51.678;6.074;2023-01-05T14:02:27;11.50;99.90
17619;DHT22;8928;51.678;6.074;2023-01-05T14:05:23;11.60;99.90
17619;DHT22;8928;51.678;6.074;2023-01-05T14:08:19;11.70;99.90
17619;DHT22;8928;51.678;6.074;2023-01-05T14:11:10;11.90;99.90
17619;DHT22;8928;51.678;6.074;2023-01-05T14:13:59;11.90;99.90
17619;DHT22;8928;51.678;6.074;2023-01-05T14:16:53;11.90;99.90
17619;DHT22;8928;51.678;6.074;2023-01-05T14:19:49;11.90;99.90
17619;DHT22;8928;51.678;6.074;2023-01-05T14:22:37;11.90;99.90
17619;DHT22;8928;51.678;6.074;2023-01-05T14:25:48;11.90;99.90
17619;DHT22;8928;51.678;6.074;2023-01-05T14:28:45;11.70;99.90
17619;DHT22;8928;51.678;6.074;2023-01-05T14:31:37;11.60;99.90
17619;DHT22;8928;51.678;6.074;2023-01-05T14:34:25;11.40;99.90
17619;DHT22;8928;51.678;6.074;2023-01-05T14:37:22;11.40;99.90
17619;DHT22;8928;51.678;6.074;2023-01-05T14:40:22;11.40;99.90
17619;DHT22;8928;51.678;6.074;2023-01-05T14:43:24;11.40;99.90
17619;DHT22;8928;51.678;6.074;2023-01-05T14:46:13;11.30;99.90
17619;DHT22;8928;51.678;6.074;2023-01-05T14:49:04;11.20;99.90
17619;DHT22;8928;51.678;6.074;2023-01-05T14:51:53;11.20;99.90
17619;DHT22;8928;51.678;6.074;2023-01-05T14:55:19;11.10;99.90
17619;DHT22;8928;51.678;6.074;2023-01-05T14:58:12;11.00;99.90
17619;DHT22;8928;51.678;6.074;2023-01-05T15:01:01;11.00;99.90
17619;DHT22;8928;51.678;6.074;2023-01-05T15:03:54;10.90;99.90
17619;DHT22;8928;51.678;6.074;2023-01-05T15:07:03;10.80;99.90
17619;DHT22;8928;51.678;6.074;2023-01-05T15:10:12;10.80;99.90
17619;DHT22;8928;51.678;6.074;2023-01-05T15:13:27;10.80;99.90
17619;DHT22;8928;51.678;6.074;2023-01-05T15:16:23;10.80;99.90
17619;DHT22;8928;51.678;6.074;2023-01-05T15:19:27;10.70;99.90
17619;DHT22;8928;51.678;6.074;2023-01-05T15:22:41;10.60;99.90
17619;DHT22;8928;51.678;6.074;2023-01-05T15:25:47;10.50;99.90
17619;DHT22;8928;51.678;6.074;2023-01-05T15:29:15;10.40;99.90
17619;DHT22;8928;51.678;6.074;2023-01-05T15:32:11;10.30;99.90
17619;DHT22;8928;51.678;6.074;2023-01-05T15:35:07;10.30;99.90
17619;DHT22;8928;51.678;6.074;2023-01-05T15:37:55;10.20;99.90
17619;DHT22;8928;51.678;6.074;2023-01-05T15:40:42;10.10;99.90
17619;DHT22;8928;51.678;6.074;2023-01-05T15:43:31;10.10;99.90
17619;DHT22;8928;51.678;6.074;2023-01-05T15:46:22;10.10;99.90
17619;DHT22;8928;51.678;6.074;2023-01-05T15:49:18;10.20;99.90
17619;DHT22;8928;51.678;6.074;2023-01-05T15:52:16;10.20;99.90
17619;DHT22;8928;51.678;6.074;2023-01-05T15:55:12;10.10;99.90
17619;DHT22;8928;51.678;6.074;2023-01-05T15:58:03;10.10;99.90
17619;DHT22;8928;51.678;6.074;2023-01-05T16:01:01;10.00;99.90
17619;DHT22;8928;51.678;6.074;2023-01-05T16:03:50;10.00;99.90
17619;DHT22;8928;51.678;6.074;2023-01-05T16:06:37;10.00;99.90
17619;DHT22;8928;51.678;6.074;2023-01-05T16:09:28;10.00;99.90
17619;DHT22;8928;51.678;6.074;2023-01-05T16:12:20;10.00;99.90
17619;DHT22;8928;51.678;6.074;2023-01-05T16:15:12;9.90;99.90
17619;DHT22;8928;51.678;6.074;2023-01-05T16:18:01;9.90;99.90
17619;DHT22;8928;51.678;6.074;2023-01-05T16:20:53;9.90;99.90
17619;DHT22;8928;51.678;6.074;2023-01-05T16:23:47;9.90;99.90
17619;DHT22;8928;51.678;6.074;2023-01-05T16:26:35;9.90;99.90
17619;DHT22;8928;51.678;6.074;2023-01-05T16:29:31;9.90;99.90
17619;DHT22;8928;51.678;6.074;2023-01-05T16:32:28;9.90;99.90
17619;DHT22;8928;51.678;6.074;2023-01-05T16:35:20;9.90;99.90
17619;DHT22;8928;51.678;6.074;2023-01-05T16:38:24;9.80;99.90
17619;DHT22;8928;51.678;6.074;2023-01-05T16:41:13;9.80;99.90
17619;DHT22;8928;51.678;6.074;2023-01-05T16:44:11;9.80;99.90
17619;DHT22;8928;51.678;6.074;2023-01-05T16:47:04;9.70;99.90
17619;DHT22;8928;51.678;6.074;2023-01-05T16:49:52;9.70;99.90
17619;DHT22;8928;51.678;6.074;2023-01-05T16:52:39;9.70;99.90
17619;DHT22;8928;51.678;6.074;2023-01-05T16:55:30;9.70;99.90
17619;DHT22;8928;51.678;6.074;2023-01-05T16:58:34;9.80;99.90
17619;DHT22;8928;51.678;6.074;2023-01-05T17:01:32;9.80;99.90
17619;DHT22;8928;51.678;6.074;2023-01-05T17:04:20;9.70;99.90
17619;DHT22;8928;51.678;6.074;2023-01-05T17:07:08;9.70;99.90
17619;DHT22;8928;51.678;6.074;2023-01-05T17:09:55;9.70;99.90
17619;DHT22;8928;51.678;6.074;2023-01-05T17:12:44;9.70;99.90
17619;DHT22;8928;51.678;6.074;2023-01-05T17:15:34;9.70;99.90
17619;DHT22;8928;51.678;6.074;2023-01-05T17:18:24;9.60;99.90
17619;DHT22;8928;51.678;6.074;2023-01-05T17:21:14;9.60;99.90
17619;DHT22;8928;51.678;6.074;2023-01-05T17:24:02;9.60;99.90
17619;DHT22;8928;51.678;6.074;2023-01-05T17:26:50;9.60;99.90
17619;DHT22;8928;51.678;6.074;2023-01-05T17:29:38;9.70;99.90
17619;DHT22;8928;51.678;6.074;2023-01-05T17:32:25;9.70;99.90
17619;DHT22;8928;51.678;6.074;2023-01-05T17:35:13;9.60;99.90
17619;DHT22;8928;51.678;6.074;2023-01-05T17:38:00;9.60;99.90
17619;DHT22;8928;51.678;6.074;2023-01-05T17:40:48;9.60;99.90
17619;DHT22;8928;51.678;6.074;2023-01-05T17:43:35;9.70;99.90
17619;DHT22;8928;51.678;6.074;2023-01-05T17:46:27;9.70;99.90
17619;DHT22;8928;51.678;6.074;2023-01-05T17:49:17;9.70;99.90
17619;DHT22;8928;51.678;6.074;2023-01-05T17:52:04;9.70;99.90
17619;DHT22;8928;51.678;6.074;2023-01-05T17:54:51;9.70;99.90
17619;DHT22;8928;51.678;6.074;2023-01-05T17:57:38;9.70;99.90
17619;DHT22;8928;51.678;6.074;2023-01-05T18:00:28;9.70;99.90
17619;DHT22;8928;51.678;6.074;2023-01-05T18:03:17;9.80;99.90
17619;DHT22;8928;51.678;6.074;2023-01-05T18:06:06;9.80;99.90
17619;DHT22;8928;51.678;6.074;2023-01-05T18:08:54;9.80;99.90
17619;DHT22;8928;51.678;6.074;2023-01-05T18:11:41;9.80;99.90
17619;DHT22;8928;51.678;6.074;2023-01-05T18:14:28;9.80;99.90
17619;DHT22;8928;51.678;6.074;2023-01-05T18:17:15;9.80;99.90
17619;DHT22;8928;51.678;6.074;2023-01-05T18:20:05;9.80;99.90
17619;DHT22;8928;51.678;6.074;2023-01-05T18:22:52;9.80;99.90
17619;DHT22;8928;51.678;6.074;2023-01-05T18:25:39;9.80;99.90
17619;DHT22;8928;51.678;6.074;2023-01-05T18:28:27;9.90;99.90
17619;DHT22;8928;51.678;6.074;2023-01-05T18:31:15;9.90;99.90
17619;DHT22;8928;51.678;6.074;2023-01-05T18:34:02;9.90;99.90
17619;DHT22;8928;51.678;6.074;2023-01-05T18:36:50;9.90;99.90